JZA8114 CYZF-CYEG
Flight info
| Callsign | JZA8114 |
|---|---|
| Flight time | 1h 21m |
| Altitude | 35000 |
| Route | YZF DCT TETAG TETAG2 |
| Aircraft | CRJ9/M-SDFGIRWY/S |
Departure
| Time | 2026-04-29 23:43 |
|---|---|
| Airport | Yellowknife International Airport (CYZF) |
Arrival
| Time | 2026-04-30 01:04 |
|---|---|
| Airport | Edmonton International Airport (CYEG) |
| Time | Latitude | Longitude | Altitude | Speed | Heading |
|---|---|---|---|---|---|
| 2026-04-29 23:43 | 62.27367 | -114.42850 | 8226 ft | 356 kts | 182° |
| 2026-04-29 23:43 | 62.24875 | -114.42759 | 9287 ft | 361 kts | 181° |
| 2026-04-29 23:43 | 62.22334 | -114.42654 | 10253 ft | 368 kts | 182° |
| 2026-04-29 23:43 | 62.19757 | -114.42542 | 11113 ft | 374 kts | 182° |
| 2026-04-29 23:44 | 62.17136 | -114.42428 | 11976 ft | 379 kts | 182° |
| 2026-04-29 23:44 | 62.14471 | -114.42298 | 12841 ft | 385 kts | 182° |
| 2026-04-29 23:44 | 62.12689 | -114.42216 | 13409 ft | 388 kts | 182° |
| 2026-04-29 23:44 | 62.09536 | -114.42075 | 14338 ft | 394 kts | 183° |
| 2026-04-29 23:45 | 62.06777 | -114.41961 | 15056 ft | 399 kts | 183° |
| 2026-04-29 23:45 | 62.03989 | -114.41841 | 15781 ft | 403 kts | 183° |
| 2026-04-29 23:45 | 62.01162 | -114.41720 | 16482 ft | 408 kts | 183° |
| 2026-04-29 23:45 | 61.98345 | -114.41592 | 17155 ft | 412 kts | 183° |
| 2026-04-29 23:46 | 61.95462 | -114.41473 | 17716 ft | 418 kts | 184° |
| 2026-04-29 23:46 | 61.92535 | -114.41362 | 18364 ft | 422 kts | 184° |
| 2026-04-29 23:46 | 61.89575 | -114.41252 | 18861 ft | 428 kts | 184° |
| 2026-04-29 23:46 | 61.86581 | -114.41157 | 19259 ft | 435 kts | 184° |
| 2026-04-29 23:47 | 61.83518 | -114.41074 | 19569 ft | 445 kts | 184° |
| 2026-04-29 23:47 | 61.80400 | -114.40994 | 20034 ft | 450 kts | 184° |
| 2026-04-29 23:47 | 61.77238 | -114.40781 | 20242 ft | 462 kts | 182° |
| 2026-04-29 23:47 | 61.73996 | -114.40500 | 20570 ft | 469 kts | 182° |
| 2026-04-29 23:48 | 61.70752 | -114.40232 | 21493 ft | 460 kts | 184° |
| 2026-04-29 23:48 | 61.67576 | -114.40075 | 22223 ft | 457 kts | 185° |
| 2026-04-29 23:48 | 61.64381 | -114.39971 | 22768 ft | 459 kts | 185° |
| 2026-04-29 23:48 | 61.62262 | -114.39883 | 23117 ft | 461 kts | 185° |
| 2026-04-29 23:49 | 61.59046 | -114.39742 | 23614 ft | 463 kts | 185° |
| 2026-04-29 23:49 | 61.54767 | -114.39571 | 24026 ft | 470 kts | 185° |
| 2026-04-29 23:49 | 61.52540 | -114.39496 | 24027 ft | 478 kts | 185° |
| 2026-04-29 23:49 | 61.48743 | -114.39399 | 24037 ft | 492 kts | 185° |
| 2026-04-29 23:50 | 61.46403 | -114.39347 | 24057 ft | 499 kts | 184° |
| 2026-04-29 23:50 | 61.42966 | -114.39200 | 24436 ft | 500 kts | 184° |
| 2026-04-29 23:50 | 61.36001 | -114.38913 | 25212 ft | 501 kts | 185° |
| 2026-04-29 23:51 | 61.32513 | -114.38771 | 25590 ft | 502 kts | 185° |
| 2026-04-29 23:51 | 61.29019 | -114.38624 | 25941 ft | 502 kts | 185° |
| 2026-04-29 23:51 | 61.25523 | -114.38478 | 26310 ft | 503 kts | 185° |
| 2026-04-29 23:51 | 61.22017 | -114.38343 | 26684 ft | 501 kts | 185° |
| 2026-04-29 23:52 | 61.18510 | -114.38192 | 26842 ft | 506 kts | 185° |
| 2026-04-29 23:52 | 61.14983 | -114.38061 | 27207 ft | 507 kts | 185° |
| 2026-04-29 23:52 | 61.11454 | -114.37913 | 27568 ft | 507 kts | 185° |
| 2026-04-29 23:52 | 61.07925 | -114.37768 | 27933 ft | 507 kts | 185° |
| 2026-04-29 23:53 | 61.04402 | -114.37627 | 28280 ft | 507 kts | 185° |
| 2026-04-29 23:53 | 61.00924 | -114.37486 | 28608 ft | 507 kts | 185° |
| 2026-04-29 23:53 | 60.97387 | -114.37339 | 28951 ft | 507 kts | 185° |
| 2026-04-29 23:53 | 60.93850 | -114.37191 | 29291 ft | 507 kts | 185° |
| 2026-04-29 23:54 | 60.90325 | -114.37047 | 29560 ft | 508 kts | 185° |
| 2026-04-29 23:54 | 60.86783 | -114.36889 | 29823 ft | 509 kts | 185° |
| 2026-04-29 23:54 | 60.83222 | -114.36742 | 29887 ft | 515 kts | 185° |
| 2026-04-29 23:55 | 60.75969 | -114.36443 | 29894 ft | 527 kts | 185° |
| 2026-04-29 23:55 | 60.68569 | -114.36132 | 30153 ft | 532 kts | 184° |
| 2026-04-29 23:55 | 60.64914 | -114.35980 | 30386 ft | 532 kts | 184° |
| 2026-04-29 23:56 | 60.61217 | -114.35829 | 30639 ft | 531 kts | 184° |
| 2026-04-29 23:56 | 60.57522 | -114.35675 | 30800 ft | 532 kts | 184° |
| 2026-04-29 23:56 | 60.53831 | -114.35503 | 31059 ft | 530 kts | 184° |
| 2026-04-29 23:56 | 60.50141 | -114.35353 | 31293 ft | 529 kts | 184° |
| 2026-04-29 23:57 | 60.46466 | -114.35200 | 31536 ft | 527 kts | 184° |
| 2026-04-29 23:57 | 60.42801 | -114.35052 | 31760 ft | 526 kts | 184° |
| 2026-04-29 23:57 | 60.39138 | -114.34913 | 31976 ft | 525 kts | 184° |
| 2026-04-29 23:57 | 60.35477 | -114.34764 | 32157 ft | 525 kts | 184° |
| 2026-04-29 23:58 | 60.31820 | -114.34618 | 32371 ft | 525 kts | 184° |
| 2026-04-29 23:58 | 60.28173 | -114.34473 | 32573 ft | 524 kts | 183° |
| 2026-04-29 23:58 | 60.25055 | -114.34335 | 32657 ft | 526 kts | 183° |
| 2026-04-29 23:58 | 60.21665 | -114.34188 | 32874 ft | 524 kts | 183° |
| 2026-04-29 23:59 | 60.18021 | -114.34048 | 33066 ft | 524 kts | 183° |
| 2026-04-29 23:59 | 60.14371 | -114.33904 | 33254 ft | 524 kts | 183° |
| 2026-04-29 23:59 | 60.10732 | -114.33761 | 33441 ft | 523 kts | 183° |
| 2026-04-29 23:59 | 60.07093 | -114.33620 | 33627 ft | 523 kts | 183° |
| 2026-04-30 00:00 | 60.03510 | -114.33471 | 33833 ft | 522 kts | 184° |
| 2026-04-30 00:00 | 59.99866 | -114.33323 | 34009 ft | 521 kts | 183° |
| 2026-04-30 00:00 | 59.96241 | -114.33186 | 34180 ft | 520 kts | 183° |
| 2026-04-30 00:00 | 59.92622 | -114.33032 | 34393 ft | 519 kts | 182° |
| 2026-04-30 00:01 | 59.89016 | -114.32862 | 34584 ft | 517 kts | 182° |
| 2026-04-30 00:01 | 59.85426 | -114.32704 | 34789 ft | 515 kts | 182° |
| 2026-04-30 00:01 | 59.81839 | -114.32571 | 34913 ft | 515 kts | 182° |
| 2026-04-30 00:02 | 59.74644 | -114.32277 | 34977 ft | 519 kts | 182° |
| 2026-04-30 00:02 | 59.68132 | -114.31950 | 35015 ft | 523 kts | 183° |
| 2026-04-30 00:03 | 59.60829 | -114.31693 | 35032 ft | 527 kts | 182° |
| 2026-04-30 00:03 | 59.53461 | -114.31410 | 35036 ft | 531 kts | 182° |
| 2026-04-30 00:04 | 59.46063 | -114.31113 | 35044 ft | 534 kts | 182° |
| 2026-04-30 00:04 | 59.38617 | -114.30833 | 35044 ft | 532 kts | 182° |
| 2026-04-30 00:05 | 59.31289 | -114.30554 | 35040 ft | 528 kts | 182° |
| 2026-04-30 00:05 | 59.23959 | -114.30277 | 35042 ft | 524 kts | 182° |
| 2026-04-30 00:06 | 59.16675 | -114.30004 | 35051 ft | 522 kts | 182° |
| 2026-04-30 00:06 | 59.09463 | -114.29736 | 35049 ft | 519 kts | 183° |
| 2026-04-30 00:07 | 59.02241 | -114.29504 | 35033 ft | 518 kts | 181° |
| 2026-04-30 00:07 | 58.95042 | -114.28909 | 35049 ft | 517 kts | 181° |
| 2026-04-30 00:08 | 58.87838 | -114.28388 | 35057 ft | 516 kts | 181° |
| 2026-04-30 00:08 | 58.80707 | -114.27854 | 35050 ft | 515 kts | 181° |
| 2026-04-30 00:09 | 58.73538 | -114.27323 | 35060 ft | 514 kts | 181° |
| 2026-04-30 00:09 | 58.66389 | -114.26770 | 35059 ft | 514 kts | 181° |
| 2026-04-30 00:10 | 58.59239 | -114.26253 | 35068 ft | 514 kts | 181° |
| 2026-04-30 00:10 | 58.52089 | -114.25728 | 35072 ft | 514 kts | 181° |
| 2026-04-30 00:11 | 58.44949 | -114.25208 | 35073 ft | 513 kts | 181° |
| 2026-04-30 00:11 | 58.37810 | -114.24687 | 35071 ft | 513 kts | 180° |
| 2026-04-30 00:12 | 58.30672 | -114.24458 | 35058 ft | 512 kts | 183° |
| 2026-04-30 00:12 | 58.23595 | -114.24437 | 35074 ft | 511 kts | 183° |
| 2026-04-30 00:13 | 58.16455 | -114.24252 | 35081 ft | 517 kts | 182° |
| 2026-04-30 00:13 | 58.09211 | -114.24025 | 35088 ft | 523 kts | 182° |
| 2026-04-30 00:14 | 58.01885 | -114.23815 | 35095 ft | 529 kts | 182° |
| 2026-04-30 00:14 | 57.94489 | -114.23602 | 35103 ft | 533 kts | 182° |
| 2026-04-30 00:15 | 57.87065 | -114.23377 | 35101 ft | 537 kts | 182° |
| 2026-04-30 00:15 | 57.79585 | -114.23153 | 35110 ft | 534 kts | 181° |
| 2026-04-30 00:16 | 57.72177 | -114.22945 | 35108 ft | 531 kts | 181° |
| 2026-04-30 00:16 | 57.64781 | -114.22728 | 35118 ft | 529 kts | 181° |
| 2026-04-30 00:17 | 57.57438 | -114.22518 | 35133 ft | 533 kts | 181° |
| 2026-04-30 00:17 | 57.50004 | -114.22297 | 35137 ft | 536 kts | 181° |
| 2026-04-30 00:18 | 57.42535 | -114.22092 | 35150 ft | 538 kts | 181° |
| 2026-04-30 00:18 | 57.35056 | -114.21877 | 35156 ft | 535 kts | 181° |
| 2026-04-30 00:19 | 57.27639 | -114.21670 | 35149 ft | 530 kts | 181° |
| 2026-04-30 00:19 | 57.20353 | -114.21455 | 35159 ft | 525 kts | 181° |
| 2026-04-30 00:20 | 57.13084 | -114.21257 | 35153 ft | 521 kts | 181° |
| 2026-04-30 00:20 | 57.05901 | -114.21055 | 35159 ft | 517 kts | 181° |
| 2026-04-30 00:21 | 56.98719 | -114.20856 | 35164 ft | 515 kts | 181° |
| 2026-04-30 00:21 | 56.91564 | -114.20655 | 35163 ft | 512 kts | 181° |
| 2026-04-30 00:22 | 56.84443 | -114.20459 | 35180 ft | 511 kts | 181° |
| 2026-04-30 00:22 | 56.77341 | -114.20262 | 35180 ft | 509 kts | 181° |
| 2026-04-30 00:23 | 56.71220 | -114.20095 | 35187 ft | 508 kts | 181° |
| 2026-04-30 00:23 | 56.64200 | -114.19906 | 35194 ft | 507 kts | 180° |
| 2026-04-30 00:24 | 56.57151 | -114.19711 | 35190 ft | 506 kts | 181° |
| 2026-04-30 00:24 | 56.50099 | -114.19522 | 35192 ft | 508 kts | 180° |
| 2026-04-30 00:25 | 56.42970 | -114.19327 | 35198 ft | 515 kts | 180° |
| 2026-04-30 00:25 | 56.35761 | -114.19133 | 35212 ft | 521 kts | 180° |
| 2026-04-30 00:26 | 56.28468 | -114.18940 | 35176 ft | 526 kts | 180° |
| 2026-04-30 00:26 | 56.21170 | -114.18746 | 35200 ft | 529 kts | 180° |
| 2026-04-30 00:27 | 56.13732 | -114.18547 | 35217 ft | 533 kts | 180° |
| 2026-04-30 00:27 | 56.06297 | -114.18347 | 35224 ft | 535 kts | 180° |
| 2026-04-30 00:27 | 56.02657 | -114.18244 | 35220 ft | 523 kts | 180° |
| 2026-04-30 00:28 | 55.99064 | -114.18150 | 35215 ft | 510 kts | 180° |
| 2026-04-30 00:28 | 55.95549 | -114.18064 | 35210 ft | 499 kts | 180° |
| 2026-04-30 00:28 | 55.92109 | -114.17979 | 35197 ft | 489 kts | 180° |
| 2026-04-30 00:29 | 55.85428 | -114.17796 | 35209 ft | 471 kts | 180° |
| 2026-04-30 00:29 | 55.78979 | -114.17587 | 35215 ft | 456 kts | 180° |
| 2026-04-30 00:30 | 55.72738 | -114.17337 | 35214 ft | 441 kts | 181° |
| 2026-04-30 00:30 | 55.66698 | -114.17192 | 34968 ft | 427 kts | 180° |
| 2026-04-30 00:30 | 55.63692 | -114.17115 | 34168 ft | 436 kts | 180° |
| 2026-04-30 00:31 | 55.60654 | -114.17056 | 33366 ft | 439 kts | 180° |
| 2026-04-30 00:31 | 55.57581 | -114.17008 | 32690 ft | 441 kts | 180° |
| 2026-04-30 00:31 | 55.54519 | -114.16931 | 32049 ft | 441 kts | 180° |
| 2026-04-30 00:31 | 55.51440 | -114.16836 | 31430 ft | 441 kts | 180° |
| 2026-04-30 00:32 | 55.48393 | -114.16752 | 30961 ft | 437 kts | 180° |
| 2026-04-30 00:32 | 55.45391 | -114.16680 | 30478 ft | 434 kts | 180° |
| 2026-04-30 00:32 | 55.42392 | -114.16611 | 29957 ft | 431 kts | 180° |
| 2026-04-30 00:32 | 55.40362 | -114.16560 | 29614 ft | 428 kts | 180° |
| 2026-04-30 00:33 | 55.36999 | -114.16472 | 29052 ft | 423 kts | 180° |
| 2026-04-30 00:33 | 55.34070 | -114.16395 | 28574 ft | 420 kts | 180° |
| 2026-04-30 00:33 | 55.31155 | -114.16320 | 28102 ft | 416 kts | 180° |
| 2026-04-30 00:33 | 55.28271 | -114.16249 | 27639 ft | 412 kts | 180° |
| 2026-04-30 00:34 | 55.25419 | -114.16177 | 27197 ft | 409 kts | 180° |
| 2026-04-30 00:34 | 55.22586 | -114.16105 | 26804 ft | 404 kts | 180° |
| 2026-04-30 00:34 | 55.19793 | -114.16033 | 26429 ft | 399 kts | 180° |
| 2026-04-30 00:34 | 55.17012 | -114.15964 | 26018 ft | 396 kts | 180° |
| 2026-04-30 00:35 | 55.14264 | -114.15897 | 25615 ft | 393 kts | 180° |
| 2026-04-30 00:35 | 55.11575 | -114.15830 | 25230 ft | 390 kts | 180° |
| 2026-04-30 00:35 | 55.08842 | -114.15760 | 24335 ft | 400 kts | 180° |
| 2026-04-30 00:35 | 55.05967 | -114.15693 | 22655 ft | 426 kts | 180° |
| 2026-04-30 00:36 | 55.02924 | -114.15621 | 20971 ft | 447 kts | 180° |
| 2026-04-30 00:36 | 54.99804 | -114.15542 | 20111 ft | 445 kts | 180° |
| 2026-04-30 00:36 | 54.96740 | -114.15461 | 19650 ft | 431 kts | 180° |
| 2026-04-30 00:36 | 54.94777 | -114.15411 | 19501 ft | 420 kts | 180° |
| 2026-04-30 00:37 | 54.91917 | -114.15337 | 19369 ft | 402 kts | 180° |
| 2026-04-30 00:37 | 54.88374 | -114.15244 | 19279 ft | 380 kts | 180° |
| 2026-04-30 00:37 | 54.85784 | -114.15180 | 19248 ft | 364 kts | 180° |
| 2026-04-30 00:37 | 54.83303 | -114.15119 | 19228 ft | 350 kts | 180° |
| 2026-04-30 00:38 | 54.81712 | -114.15081 | 19221 ft | 341 kts | 180° |
| 2026-04-30 00:38 | 54.79381 | -114.15021 | 19216 ft | 328 kts | 180° |
| 2026-04-30 00:38 | 54.77136 | -114.14967 | 19219 ft | 317 kts | 180° |
| 2026-04-30 00:38 | 54.74961 | -114.14915 | 19220 ft | 307 kts | 180° |
| 2026-04-30 00:39 | 54.72855 | -114.14863 | 19212 ft | 297 kts | 181° |
| 2026-04-30 00:39 | 54.70826 | -114.14817 | 19213 ft | 288 kts | 180° |
| 2026-04-30 00:39 | 54.68877 | -114.14767 | 19211 ft | 279 kts | 181° |
| 2026-04-30 00:39 | 54.66969 | -114.14720 | 19217 ft | 270 kts | 181° |
| 2026-04-30 00:40 | 54.65114 | -114.14677 | 19207 ft | 261 kts | 181° |
| 2026-04-30 00:40 | 54.63298 | -114.14634 | 19204 ft | 259 kts | 181° |
| 2026-04-30 00:40 | 54.61464 | -114.14592 | 18526 ft | 275 kts | 181° |
| 2026-04-30 00:40 | 54.59474 | -114.14549 | 17604 ft | 295 kts | 180° |
| 2026-04-30 00:41 | 54.57370 | -114.14495 | 16777 ft | 308 kts | 180° |
| 2026-04-30 00:41 | 54.55229 | -114.14433 | 16322 ft | 307 kts | 180° |
| 2026-04-30 00:41 | 54.53131 | -114.14377 | 15899 ft | 304 kts | 180° |
| 2026-04-30 00:41 | 54.51015 | -114.14322 | 15477 ft | 302 kts | 180° |
| 2026-04-30 00:42 | 54.48920 | -114.14274 | 15065 ft | 299 kts | 180° |
| 2026-04-30 00:42 | 54.46852 | -114.13936 | 14653 ft | 297 kts | 169° |
| 2026-04-30 00:42 | 54.44840 | -114.13176 | 14263 ft | 295 kts | 167° |
| 2026-04-30 00:42 | 54.42853 | -114.12355 | 13854 ft | 292 kts | 167° |
| 2026-04-30 00:43 | 54.40873 | -114.11595 | 13431 ft | 290 kts | 169° |
| 2026-04-30 00:43 | 54.38900 | -114.10959 | 13012 ft | 287 kts | 171° |
| 2026-04-30 00:43 | 54.36941 | -114.10342 | 12598 ft | 285 kts | 170° |
| 2026-04-30 00:43 | 54.35003 | -114.09710 | 12204 ft | 282 kts | 170° |
| 2026-04-30 00:44 | 54.33087 | -114.09081 | 11812 ft | 279 kts | 171° |
| 2026-04-30 00:44 | 54.31548 | -114.08575 | 11507 ft | 277 kts | 171° |
| 2026-04-30 00:44 | 54.29658 | -114.07960 | 11120 ft | 275 kts | 171° |
| 2026-04-30 00:44 | 54.27784 | -114.07351 | 10748 ft | 272 kts | 171° |
| 2026-04-30 00:45 | 54.25937 | -114.06754 | 10445 ft | 267 kts | 171° |
| 2026-04-30 00:45 | 54.24119 | -114.06154 | 10085 ft | 265 kts | 171° |
| 2026-04-30 00:45 | 54.22315 | -114.05568 | 9690 ft | 263 kts | 171° |
| 2026-04-30 00:45 | 54.20527 | -114.04986 | 9299 ft | 261 kts | 171° |
| 2026-04-30 00:46 | 54.18749 | -114.04404 | 8924 ft | 259 kts | 171° |
| 2026-04-30 00:46 | 54.16985 | -114.03829 | 8542 ft | 257 kts | 171° |
| 2026-04-30 00:46 | 54.15232 | -114.03261 | 8180 ft | 256 kts | 171° |
| 2026-04-30 00:46 | 54.13483 | -114.02696 | 7774 ft | 256 kts | 171° |
| 2026-04-30 00:47 | 54.11736 | -114.02198 | 7415 ft | 254 kts | 171° |
| 2026-04-30 00:47 | 54.10004 | -114.01651 | 7056 ft | 253 kts | 170° |
| 2026-04-30 00:47 | 54.08282 | -114.01085 | 6732 ft | 251 kts | 170° |
| 2026-04-30 00:47 | 54.06575 | -114.00513 | 6407 ft | 249 kts | 169° |
| 2026-04-30 00:48 | 54.04877 | -113.99946 | 6048 ft | 247 kts | 170° |
| 2026-04-30 00:48 | 54.03174 | -113.99384 | 5606 ft | 250 kts | 169° |
| 2026-04-30 00:48 | 54.01513 | -113.98835 | 5410 ft | 242 kts | 169° |
| 2026-04-30 00:48 | 53.99901 | -113.98285 | 5254 ft | 231 kts | 169° |
| 2026-04-30 00:49 | 53.98364 | -113.97835 | 5241 ft | 216 kts | 170° |
| 2026-04-30 00:49 | 53.96925 | -113.97361 | 5209 ft | 204 kts | 170° |
| 2026-04-30 00:49 | 53.95571 | -113.96966 | 5173 ft | 191 kts | 171° |
| 2026-04-30 00:49 | 53.94306 | -113.96592 | 5165 ft | 177 kts | 169° |
| 2026-04-30 00:50 | 53.93140 | -113.96217 | 5127 ft | 164 kts | 169° |
| 2026-04-30 00:50 | 53.92057 | -113.95866 | 5014 ft | 154 kts | 169° |
| 2026-04-30 00:50 | 53.90988 | -113.95522 | 4684 ft | 160 kts | 169° |
| 2026-04-30 00:50 | 53.89898 | -113.95171 | 4430 ft | 157 kts | 169° |
| 2026-04-30 00:51 | 53.88841 | -113.94832 | 4234 ft | 152 kts | 167° |
| 2026-04-30 00:51 | 53.87792 | -113.94437 | 3854 ft | 160 kts | 169° |
| 2026-04-30 00:51 | 53.86667 | -113.94076 | 3524 ft | 163 kts | 170° |
| 2026-04-30 00:51 | 53.85598 | -113.93745 | 3374 ft | 153 kts | 170° |
| 2026-04-30 00:52 | 53.84511 | -113.93421 | 3068 ft | 180 kts | 171° |
| 2026-04-30 00:52 | 53.83193 | -113.93039 | 3779 ft | 196 kts | 169° |
| 2026-04-30 00:52 | 53.81836 | -113.92599 | 4701 ft | 206 kts | 169° |
| 2026-04-30 00:52 | 53.80314 | -113.92086 | 5082 ft | 242 kts | 169° |
| 2026-04-30 00:53 | 53.78559 | -113.91483 | 5259 ft | 260 kts | 169° |
| 2026-04-30 00:53 | 53.76898 | -113.90943 | 5257 ft | 234 kts | 169° |
| 2026-04-30 00:53 | 53.75374 | -113.90460 | 5216 ft | 213 kts | 169° |
| 2026-04-30 00:53 | 53.73977 | -113.90025 | 5183 ft | 195 kts | 169° |
| 2026-04-30 00:54 | 53.72695 | -113.89624 | 5140 ft | 181 kts | 170° |
| 2026-04-30 00:54 | 53.71493 | -113.89252 | 5121 ft | 170 kts | 170° |
| 2026-04-30 00:54 | 53.70371 | -113.88901 | 5117 ft | 157 kts | 169° |
| 2026-04-30 00:54 | 53.69323 | -113.88569 | 4989 ft | 154 kts | 169° |
| 2026-04-30 00:55 | 53.68192 | -113.88216 | 5089 ft | 179 kts | 170° |
| 2026-04-30 00:55 | 53.66894 | -113.87813 | 5230 ft | 200 kts | 170° |
| 2026-04-30 00:55 | 53.63836 | -113.86846 | 5326 ft | 245 kts | 170° |
| 2026-04-30 00:56 | 53.62092 | -113.86294 | 5316 ft | 263 kts | 169° |
| 2026-04-30 00:56 | 53.60336 | -113.85734 | 5281 ft | 248 kts | 169° |
| 2026-04-30 00:56 | 53.58688 | -113.85214 | 5255 ft | 234 kts | 169° |
| 2026-04-30 00:56 | 53.57127 | -113.84721 | 5207 ft | 223 kts | 170° |
| 2026-04-30 00:57 | 53.55640 | -113.84254 | 5200 ft | 213 kts | 170° |
| 2026-04-30 00:57 | 53.54235 | -113.83810 | 5178 ft | 203 kts | 169° |
| 2026-04-30 00:57 | 53.52872 | -113.83376 | 5183 ft | 195 kts | 169° |
| 2026-04-30 00:57 | 53.51566 | -113.82947 | 5180 ft | 187 kts | 169° |
| 2026-04-30 00:58 | 53.50309 | -113.82542 | 5174 ft | 180 kts | 169° |
| 2026-04-30 00:58 | 53.49117 | -113.82162 | 5223 ft | 167 kts | 170° |
| 2026-04-30 00:58 | 53.47996 | -113.81818 | 5233 ft | 161 kts | 170° |
| 2026-04-30 00:58 | 53.46912 | -113.81490 | 5220 ft | 156 kts | 170° |
| 2026-04-30 00:59 | 53.45853 | -113.81169 | 5209 ft | 153 kts | 170° |
| 2026-04-30 00:59 | 53.44820 | -113.80855 | 5190 ft | 150 kts | 170° |
| 2026-04-30 00:59 | 53.43811 | -113.80541 | 5178 ft | 145 kts | 169° |
| 2026-04-30 00:59 | 53.42858 | -113.80049 | 5118 ft | 145 kts | 145° |
| 2026-04-30 01:00 | 53.42138 | -113.78940 | 5148 ft | 143 kts | 134° |
| 2026-04-30 01:00 | 53.41422 | -113.77714 | 5210 ft | 153 kts | 130° |
| 2026-04-30 01:00 | 53.40663 | -113.76382 | 5264 ft | 164 kts | 131° |
| 2026-04-30 01:00 | 53.39838 | -113.74936 | 5211 ft | 179 kts | 132° |
| 2026-04-30 01:01 | 53.38939 | -113.73416 | 4907 ft | 190 kts | 134° |
| 2026-04-30 01:01 | 53.38020 | -113.71909 | 4478 ft | 175 kts | 133° |
| 2026-04-30 01:01 | 53.37190 | -113.70539 | 4114 ft | 160 kts | 132° |
| 2026-04-30 01:01 | 53.36447 | -113.69287 | 3925 ft | 144 kts | 133° |
| 2026-04-30 01:02 | 53.35763 | -113.68166 | 3682 ft | 132 kts | 131° |
| 2026-04-30 01:02 | 53.35125 | -113.67089 | 3405 ft | 129 kts | 131° |
| 2026-04-30 01:02 | 53.34502 | -113.66063 | 3184 ft | 129 kts | 131° |
| 2026-04-30 01:02 | 53.33867 | -113.65001 | 3133 ft | 128 kts | 130° |
| 2026-04-30 01:03 | 53.33248 | -113.63927 | 3109 ft | 132 kts | 131° |
| 2026-04-30 01:03 | 53.32553 | -113.62768 | 3020 ft | 147 kts | 131° |
| 2026-04-30 01:03 | 53.31811 | -113.61526 | 2852 ft | 155 kts | 133° |
| 2026-04-30 01:03 | 53.31031 | -113.60266 | 2530 ft | 155 kts | 133° |
| 2026-04-30 01:04 | 53.30295 | -113.59036 | 2367 ft | 136 kts | 131° |
| 2026-04-30 01:04 | 53.29726 | -113.58064 | 2353 ft | 99 kts | 135° |
| 2026-04-30 01:04 | 53.29300 | -113.57361 | 2349 ft | 59 kts | 134° |
| 2026-04-30 01:04 | 53.29112 | -113.56977 | 2348 ft | 27 kts | 112° |
| 2026-04-30 01:05 | 53.29109 | -113.56660 | 2347 ft | 26 kts | 72° |
| 2026-04-30 01:05 | 53.30887 | -113.60027 | 2492 ft | 154 kts | 132° |
| 2026-04-30 01:05 | 53.30180 | -113.58840 | 2356 ft | 130 kts | 133° |
| 2026-04-30 01:05 | 53.33980 | -113.65195 | 3138 ft | 129 kts | 130° |
| 2026-04-30 01:06 | 53.33415 | -113.64217 | 3118 ft | 128 kts | 131° |
| 2026-04-30 01:06 | 53.30365 | -113.59151 | 2377 ft | 140 kts | 131° |
| 2026-04-30 01:06 | 53.29774 | -113.58142 | 2354 ft | 102 kts | 135° |
| 2026-04-30 01:06 | 62.45879 | -114.44174 | 677 ft | 121 kts | 357° |
| 2026-04-30 01:07 | 62.44244 | -114.43918 | 914 ft | 133 kts | 355° |
| 2026-04-30 01:07 | 62.45118 | -114.44114 | 679 ft | 112 kts | 354° |
| 2026-04-30 01:07 | 62.45779 | -114.44236 | 676 ft | 80 kts | 359° |